createdAt,value
2018-09-15T00:00:01.556Z,7.80
2018-09-15T00:02:30.418Z,6.83
2018-09-15T00:04:59.263Z,7.37
2018-09-15T00:07:28.119Z,6.57
2018-09-15T00:09:57.014Z,6.63
2018-09-15T00:12:25.849Z,6.47
2018-09-15T00:14:54.691Z,6.60
2018-09-15T00:17:24.388Z,6.00
2018-09-15T00:19:53.343Z,6.50
2018-09-15T00:22:22.171Z,6.50
2018-09-15T00:24:51.055Z,7.60
2018-09-15T00:27:19.887Z,8.63
2018-09-15T00:29:48.761Z,9.30
2018-09-15T00:32:17.654Z,11.93
2018-09-15T00:34:46.547Z,13.07
2018-09-15T00:37:15.381Z,9.17
2018-09-15T00:39:44.248Z,9.27
2018-09-15T00:42:13.123Z,7.90
2018-09-15T00:44:41.971Z,7.40
2018-09-15T00:47:10.802Z,7.13
2018-09-15T00:49:39.724Z,8.07
2018-09-15T00:52:08.557Z,6.63
2018-09-15T00:54:37.378Z,7.43
2018-09-15T00:57:06.435Z,7.10
2018-09-15T00:59:35.295Z,7.37
2018-09-15T01:02:04.097Z,6.87
2018-09-15T01:04:32.967Z,7.93
2018-09-15T01:07:01.793Z,7.90
2018-09-15T01:09:30.614Z,7.40
2018-09-15T01:11:59.468Z,9.57
2018-09-15T01:14:28.479Z,12.47
2018-09-15T01:16:57.311Z,10.80
2018-09-15T01:19:26.386Z,9.73
2018-09-15T01:21:55.225Z,11.13
2018-09-15T01:24:24.038Z,9.23
2018-09-15T01:26:52.931Z,10.00
2018-09-15T01:29:21.769Z,11.40
2018-09-15T01:31:50.618Z,13.53
2018-09-15T01:34:19.458Z,12.83
2018-09-15T01:36:48.306Z,10.37
2018-09-15T01:39:17.163Z,7.90
2018-09-15T01:41:45.988Z,7.80
2018-09-15T01:44:14.806Z,8.80
2018-09-15T01:46:44.859Z,7.60
2018-09-15T01:49:13.668Z,8.00
2018-09-15T01:51:42.506Z,7.90
2018-09-15T01:54:11.341Z,8.20
2018-09-15T01:56:40.146Z,8.37
2018-09-15T01:59:08.964Z,8.03
2018-09-15T02:01:39.022Z,8.00
2018-09-15T02:04:08.579Z,7.90
2018-09-15T02:06:37.451Z,7.37
2018-09-15T02:09:10.075Z,8.27
2018-09-15T02:11:38.878Z,7.73
2018-09-15T02:14:07.794Z,8.23
2018-09-15T02:16:36.691Z,8.30
2018-09-15T02:19:05.491Z,7.83
2018-09-15T02:21:34.310Z,7.30
2018-09-15T02:24:03.154Z,7.70
2018-09-15T02:26:31.951Z,7.27
2018-09-15T02:29:00.781Z,7.83
2018-09-15T02:31:29.718Z,8.67
2018-09-15T02:33:58.530Z,7.47
2018-09-15T02:36:27.432Z,8.70
2018-09-15T02:38:56.309Z,7.87
2018-09-15T02:41:25.097Z,8.20
2018-09-15T02:43:53.885Z,7.90
2018-09-15T02:46:22.794Z,7.67
2018-09-15T02:48:51.634Z,8.27
2018-09-15T02:51:20.496Z,8.60
2018-09-15T02:53:49.418Z,8.90
2018-09-15T02:56:18.254Z,8.37
2018-09-15T02:58:47.093Z,8.00
2018-09-15T03:01:15.965Z,7.87
2018-09-15T03:03:44.766Z,7.87
2018-09-15T03:06:13.562Z,7.87
2018-09-15T03:08:42.425Z,8.83
2018-09-15T03:11:12.303Z,8.23
2018-09-15T03:13:41.129Z,12.80
2018-09-15T03:16:10.091Z,13.00
2018-09-15T03:18:38.920Z,13.87
2018-09-15T03:21:07.759Z,14.37
2018-09-15T03:23:36.703Z,13.43
2018-09-15T03:26:05.604Z,12.67
2018-09-15T03:28:34.446Z,12.63
2018-09-15T03:31:03.269Z,13.83
2018-09-15T03:33:32.086Z,16.30
2018-09-15T03:36:00.976Z,13.53
2018-09-15T03:38:35.328Z,11.20
2018-09-15T03:41:04.164Z,10.73
2018-09-15T03:43:32.975Z,9.90
2018-09-15T03:46:01.788Z,9.07
2018-09-15T03:48:30.631Z,9.73
2018-09-15T03:51:00.819Z,9.13
2018-09-15T03:53:29.627Z,9.13
2018-09-15T03:55:58.434Z,9.70
2018-09-15T03:58:27.290Z,10.10
2018-09-15T04:00:56.104Z,10.13
2018-09-15T04:03:25.022Z,9.43
2018-09-15T04:05:53.866Z,9.07
2018-09-15T04:08:22.689Z,9.60
2018-09-15T04:10:51.561Z,9.77
2018-09-15T04:13:20.428Z,9.57
2018-09-15T04:15:49.374Z,9.80
2018-09-15T04:18:18.221Z,9.93
2018-09-15T04:20:49.868Z,10.80
2018-09-15T04:23:18.657Z,10.30
2018-09-15T04:25:47.486Z,11.10
2018-09-15T04:28:16.390Z,12.43
2018-09-15T04:30:45.255Z,16.27
2018-09-15T04:33:14.097Z,14.33
2018-09-15T04:35:43.075Z,11.57
2018-09-15T04:38:12.583Z,11.73
2018-09-15T04:40:41.622Z,11.17
2018-09-15T04:43:11.869Z,10.70
2018-09-15T04:45:40.955Z,10.90
2018-09-15T04:48:09.765Z,9.70
2018-09-15T04:50:38.647Z,10.00
2018-09-15T04:53:07.517Z,10.97
2018-09-15T04:55:37.570Z,12.33
2018-09-15T04:58:06.430Z,11.17
2018-09-15T05:00:36.134Z,14.17
2018-09-15T05:03:05.058Z,12.87
2018-09-15T05:05:33.862Z,11.73
2018-09-15T05:08:02.721Z,10.83
2018-09-15T05:10:31.568Z,10.70
2018-09-15T05:13:00.436Z,9.80
2018-09-15T05:15:29.299Z,10.60
2018-09-15T05:17:58.123Z,8.40
2018-09-15T05:20:26.942Z,9.63
2018-09-15T05:22:57.007Z,8.37
2018-09-15T05:25:25.817Z,9.73
2018-09-15T05:27:54.700Z,10.07
2018-09-15T05:30:23.560Z,8.57
2018-09-15T05:32:52.366Z,8.93
2018-09-15T05:35:21.174Z,8.60
2018-09-15T05:37:50.006Z,8.47
2018-09-15T05:40:18.837Z,9.63
2018-09-15T05:42:47.648Z,8.50
2018-09-15T05:45:16.481Z,8.57
2018-09-15T05:47:45.298Z,9.27
2018-09-15T05:50:14.148Z,9.90
2018-09-15T05:52:42.998Z,8.37
2018-09-15T05:55:11.826Z,8.87
2018-09-15T05:57:40.630Z,8.30
2018-09-15T06:00:09.556Z,9.03
2018-09-15T06:02:38.384Z,9.07
2018-09-15T06:05:07.347Z,15.63
2018-09-15T06:07:36.217Z,19.50
2018-09-15T06:10:05.250Z,15.43
2018-09-15T06:12:34.090Z,15.57
2018-09-15T06:15:02.922Z,17.23
2018-09-15T06:17:31.765Z,11.90
2018-09-15T06:20:00.651Z,13.60
2018-09-15T06:22:29.534Z,11.73
2018-09-15T06:24:59.099Z,12.00
2018-09-15T06:27:28.804Z,9.40
2018-09-15T06:29:58.853Z,9.53
2018-09-15T06:32:27.678Z,11.23
2018-09-15T06:34:56.561Z,9.30
2018-09-15T06:37:25.388Z,10.30
2018-09-15T06:39:54.215Z,10.73
2018-09-15T06:42:24.261Z,11.67
2018-09-15T06:44:53.091Z,12.83
2018-09-15T06:47:21.978Z,12.47
2018-09-15T06:49:50.810Z,13.70
2018-09-15T06:52:19.653Z,9.73
2018-09-15T06:54:49.722Z,9.37
2018-09-15T06:57:18.575Z,11.17
2018-09-15T06:59:47.399Z,12.07
2018-09-15T07:02:16.280Z,20.60
2018-09-15T07:04:45.158Z,14.20
2018-09-15T07:07:14.015Z,14.57
2018-09-15T07:09:44.106Z,19.73
2018-09-15T07:12:12.929Z,18.50
2018-09-15T07:14:41.798Z,11.60
2018-09-15T07:17:11.862Z,8.33
2018-09-15T07:19:40.674Z,7.90
2018-09-15T07:22:09.529Z,7.43
2018-09-15T07:24:38.400Z,7.43
2018-09-15T07:27:07.315Z,8.10
2018-09-15T07:29:36.153Z,7.50
2018-09-15T07:32:05.044Z,8.20
2018-09-15T07:34:33.922Z,9.37
2018-09-15T07:37:02.759Z,9.37
2018-09-15T07:39:33.041Z,8.00
2018-09-15T07:42:01.903Z,8.83
2018-09-15T07:44:30.746Z,9.70
2018-09-15T07:47:00.843Z,8.53
2018-09-15T07:49:29.719Z,13.17
2018-09-15T07:51:58.547Z,14.27
2018-09-15T07:54:27.391Z,10.60
2018-09-15T07:56:57.472Z,8.40
2018-09-15T07:59:26.428Z,8.63
2018-09-15T08:01:55.294Z,7.57
2018-09-15T08:04:25.362Z,8.63
2018-09-15T08:06:54.282Z,9.60
2018-09-15T08:09:23.117Z,8.40
2018-09-15T08:11:51.975Z,8.63
2018-09-15T08:14:22.166Z,11.23
2018-09-15T08:16:51.081Z,8.93
2018-09-15T08:19:19.971Z,8.80
2018-09-15T08:21:48.862Z,10.40
2018-09-15T08:24:17.752Z,7.77
2018-09-15T08:26:53.405Z,8.70
2018-09-15T08:29:22.424Z,8.50
2018-09-15T08:31:51.605Z,7.50
2018-09-15T08:34:22.076Z,7.80
2018-09-15T08:36:51.033Z,6.97
2018-09-15T08:39:20.889Z,8.10
2018-09-15T08:41:51.087Z,7.47
2018-09-15T08:44:19.986Z,10.03
2018-09-15T08:46:49.012Z,9.27
2018-09-15T08:49:19.110Z,9.43
2018-09-15T08:51:48.028Z,24.77
2018-09-15T08:54:17.014Z,9.43
2018-09-15T08:56:45.929Z,8.73
2018-09-15T08:59:14.793Z,6.67
2018-09-15T09:01:43.679Z,21.33
2018-09-15T09:04:12.569Z,12.87
2018-09-15T09:06:41.470Z,23.97
2018-09-15T09:09:11.782Z,14.17
2018-09-15T09:11:40.770Z,10.60
2018-09-15T09:14:09.729Z,7.70
2018-09-15T09:16:39.034Z,7.73
2018-09-15T09:19:07.982Z,8.83
2018-09-15T09:21:37.071Z,11.20
2018-09-15T09:24:06.156Z,7.00
2018-09-15T09:26:36.328Z,6.50
2018-09-15T09:29:05.468Z,7.00
2018-09-15T09:31:34.358Z,6.60
2018-09-15T09:34:03.957Z,6.43
2018-09-15T09:36:32.878Z,6.50
2018-09-15T09:39:01.714Z,7.17
2018-09-15T09:41:30.671Z,6.23
2018-09-15T09:43:59.530Z,6.93
2018-09-15T09:46:28.475Z,6.80
2018-09-15T09:48:57.389Z,6.47
2018-09-15T09:51:26.258Z,6.90
2018-09-15T09:53:55.126Z,6.50
2018-09-15T09:56:24.067Z,6.57
2018-09-15T09:58:52.950Z,6.20
2018-09-15T10:01:24.142Z,6.47
2018-09-15T10:03:53.045Z,7.03
2018-09-15T10:06:21.921Z,6.70
2018-09-15T10:08:50.768Z,6.87
2018-09-15T10:11:21.168Z,6.27
2018-09-15T10:13:49.986Z,6.33
2018-09-15T10:16:19.901Z,6.77
2018-09-15T10:18:48.793Z,6.87
2018-09-15T10:21:19.021Z,6.27
2018-09-15T10:23:47.897Z,6.73
2018-09-15T10:26:16.750Z,6.57
2018-09-15T10:28:45.733Z,7.20
2018-09-15T10:31:14.613Z,7.30
2018-09-15T10:33:43.778Z,6.27
2018-09-15T10:38:56.416Z,6.10
2018-09-15T10:41:25.687Z,6.17
2018-09-15T10:43:54.750Z,6.40
2018-09-15T10:46:23.736Z,5.70
2018-09-15T10:48:52.669Z,5.90
2018-09-15T10:51:22.953Z,5.90
2018-09-15T10:53:51.871Z,5.87
2018-09-15T10:56:20.718Z,6.00
2018-09-15T10:58:49.673Z,5.93
2018-09-15T11:01:19.686Z,5.63
2018-09-15T11:03:50.110Z,5.37
2018-09-15T11:06:19.218Z,6.17
2018-09-15T11:08:48.186Z,6.13
2018-09-15T11:11:17.066Z,6.23
2018-09-15T11:13:46.073Z,6.13
2018-09-15T11:16:15.085Z,6.40
2018-09-15T11:18:44.126Z,6.53
2018-09-15T11:21:12.989Z,6.87
2018-09-15T11:23:43.333Z,5.90
2018-09-15T11:26:12.191Z,5.97
2018-09-15T11:28:41.093Z,5.97
2018-09-15T11:31:10.038Z,7.47
2018-09-15T11:33:38.918Z,8.07
2018-09-15T11:36:07.931Z,7.60
2018-09-15T11:38:38.268Z,7.97
2018-09-15T11:41:07.230Z,5.83
2018-09-15T11:43:36.147Z,6.53
2018-09-15T11:46:05.049Z,6.50
2018-09-15T11:48:34.085Z,6.90
2018-09-15T11:51:02.966Z,6.77
2018-09-15T11:53:35.994Z,6.40
2018-09-15T11:56:05.660Z,6.80
2018-09-15T11:58:34.705Z,6.60
2018-09-15T12:01:04.448Z,6.80
2018-09-15T12:03:33.632Z,6.83
2018-09-15T12:06:02.479Z,6.67
2018-09-15T12:08:31.534Z,5.83
2018-09-15T12:11:02.207Z,6.63
2018-09-15T12:13:31.374Z,6.70
2018-09-15T12:16:00.679Z,6.20
2018-09-15T12:18:29.961Z,6.43
2018-09-15T12:21:00.400Z,6.60
2018-09-15T12:23:29.556Z,7.10
2018-09-15T12:25:58.722Z,7.07
2018-09-15T12:28:27.585Z,7.50
2018-09-15T12:30:58.690Z,7.17
2018-09-15T12:33:27.631Z,7.53
2018-09-15T12:35:56.527Z,7.70
2018-09-15T12:38:25.347Z,7.60
2018-09-15T12:40:54.215Z,7.40
2018-09-15T12:43:23.076Z,7.67
2018-09-15T12:45:51.978Z,7.63
2018-09-15T12:48:20.910Z,6.17
2018-09-15T12:50:49.803Z,6.60
2018-09-15T12:53:18.705Z,6.67
2018-09-15T12:55:47.629Z,6.70
2018-09-15T12:58:16.524Z,7.20
2018-09-15T13:00:45.519Z,6.33
2018-09-15T13:03:14.348Z,7.60
2018-09-15T13:05:43.263Z,7.27
2018-09-15T13:08:12.275Z,7.10
2018-09-15T13:10:41.174Z,6.53
2018-09-15T13:13:10.058Z,7.00
2018-09-15T13:15:38.974Z,6.80
2018-09-15T13:18:07.849Z,6.30
2018-09-15T13:20:36.747Z,6.03
2018-09-15T13:23:05.665Z,6.80
2018-09-15T13:25:34.514Z,6.60
2018-09-15T13:28:03.407Z,6.37
2018-09-15T13:30:32.294Z,6.33
2018-09-15T13:33:01.170Z,6.00
2018-09-15T13:35:30.050Z,6.90
2018-09-15T13:37:59.103Z,6.23
2018-09-15T13:40:27.925Z,6.20
2018-09-15T13:42:56.799Z,7.17
2018-09-15T13:45:25.778Z,7.03
2018-09-15T13:47:54.687Z,7.07
2018-09-15T13:50:23.597Z,7.40
2018-09-15T13:52:52.564Z,7.30
2018-09-15T13:55:22.795Z,7.13
2018-09-15T13:57:51.764Z,6.50
2018-09-15T14:00:20.630Z,6.73
2018-09-15T14:02:49.502Z,6.50
2018-09-15T14:05:18.461Z,7.13
2018-09-15T14:07:47.404Z,7.27
2018-09-15T14:10:19.016Z,6.50
2018-09-15T14:12:45.102Z,7.07
2018-09-15T14:15:14.052Z,7.10
2018-09-15T14:17:42.897Z,7.00
2018-09-15T14:20:11.750Z,7.33
2018-09-15T14:22:40.710Z,8.00
2018-09-15T14:25:09.550Z,7.57
2018-09-15T14:27:38.379Z,7.50
2018-09-15T14:30:07.576Z,9.80
2018-09-15T14:32:36.479Z,8.67
2018-09-15T14:35:05.410Z,8.77
2018-09-15T14:37:34.424Z,9.80
2018-09-15T14:40:03.388Z,7.77
2018-09-15T14:42:32.266Z,8.13
2018-09-15T14:45:01.154Z,7.30
2018-09-15T14:47:31.287Z,7.80
2018-09-15T14:50:00.194Z,7.87
2018-09-15T14:52:29.148Z,7.80
2018-09-15T14:54:59.446Z,8.17
2018-09-15T14:57:28.325Z,7.70
2018-09-15T14:59:57.207Z,7.53
2018-09-15T15:02:26.248Z,7.80
2018-09-15T15:04:56.452Z,7.43
2018-09-15T15:07:25.382Z,7.30
2018-09-15T15:09:54.201Z,8.00
2018-09-15T15:12:23.092Z,7.93
2018-09-15T15:14:53.255Z,7.50
2018-09-15T15:17:22.218Z,8.07
2018-09-15T15:19:51.082Z,9.57
2018-09-15T15:22:20.035Z,13.83
2018-09-15T15:24:48.846Z,29.97
2018-09-15T15:27:18.982Z,48.70
2018-09-15T15:29:47.889Z,25.82
2018-09-15T15:32:16.832Z,38.37
2018-09-15T15:34:45.695Z,42.93
2018-09-15T15:37:14.590Z,50.75
2018-09-15T15:39:44.815Z,27.63
2018-09-15T15:42:13.753Z,11.97
2018-09-15T15:44:43.882Z,46.70
2018-09-15T15:47:12.765Z,20.80
2018-09-15T15:49:41.723Z,13.50
2018-09-15T15:52:11.799Z,22.63
2018-09-15T15:54:42.122Z,8.70
2018-09-15T15:57:10.986Z,11.83
2018-09-15T15:59:39.891Z,7.80
2018-09-15T16:02:09.953Z,8.00
2018-09-15T16:04:38.809Z,7.80
2018-09-15T16:07:07.690Z,8.03
2018-09-15T16:09:36.624Z,8.27
2018-09-15T16:12:05.506Z,8.23
2018-09-15T16:14:34.477Z,10.40
2018-09-15T16:17:03.401Z,9.03
2018-09-15T16:19:33.822Z,8.77
2018-09-15T16:22:02.939Z,9.40
2018-09-15T16:24:31.922Z,8.60
2018-09-15T16:27:00.736Z,8.70
2018-09-15T16:29:30.949Z,8.80
2018-09-15T16:32:00.330Z,9.00
2018-09-15T16:34:29.262Z,8.70
2018-09-15T16:36:59.492Z,8.87
2018-09-15T16:39:28.428Z,10.07
2018-09-15T16:41:57.301Z,8.97
2018-09-15T16:44:27.583Z,8.17
2018-09-15T16:46:56.538Z,8.40
2018-09-15T16:49:25.471Z,8.30
2018-09-15T16:51:54.957Z,9.57
2018-09-15T16:54:25.458Z,8.37
2018-09-15T16:56:54.459Z,8.00
2018-09-15T16:59:23.539Z,8.90
2018-09-15T17:01:52.751Z,8.63
2018-09-15T17:04:21.659Z,8.27
2018-09-15T17:06:50.760Z,9.00
2018-09-15T17:09:19.769Z,9.70
2018-09-15T17:11:48.818Z,9.07
2018-09-15T17:14:18.002Z,8.33
2018-09-15T17:16:46.946Z,9.67
2018-09-15T17:19:15.774Z,9.43
2018-09-15T17:21:44.697Z,10.00
2018-09-15T17:24:13.583Z,9.77
2018-09-15T17:26:42.678Z,9.97
2018-09-15T17:29:11.818Z,9.40
2018-09-15T17:31:40.903Z,10.17
2018-09-15T17:34:09.962Z,9.57
2018-09-15T17:36:39.073Z,10.47
2018-09-15T17:39:11.740Z,10.07
2018-09-15T17:41:40.602Z,9.73
2018-09-15T17:44:09.480Z,9.40
2018-09-15T17:46:38.339Z,8.93
2018-09-15T17:49:07.306Z,10.23
2018-09-15T17:51:36.307Z,10.10
2018-09-15T17:54:05.197Z,9.63
2018-09-15T17:56:34.025Z,9.73
2018-09-15T17:59:02.876Z,10.43
2018-09-15T18:01:31.780Z,9.70
2018-09-15T18:04:00.796Z,9.67
2018-09-15T18:06:29.666Z,9.83
2018-09-15T18:08:59.752Z,9.73
2018-09-15T18:11:28.591Z,9.67
2018-09-15T18:13:57.444Z,9.83
2018-09-15T18:16:26.371Z,9.43
2018-09-15T18:18:55.195Z,8.77
2018-09-15T18:21:24.028Z,10.00
2018-09-15T18:23:52.920Z,12.37
2018-09-15T18:26:21.767Z,11.00
2018-09-15T18:28:51.911Z,10.00
2018-09-15T18:31:20.723Z,9.90
2018-09-15T18:33:50.863Z,10.87
2018-09-15T18:36:19.949Z,9.57
2018-09-15T18:38:48.806Z,12.03
2018-09-15T18:41:19.583Z,13.10
2018-09-15T18:43:49.812Z,11.63
2018-09-15T18:46:18.913Z,10.60
2018-09-15T18:48:47.719Z,9.67
2018-09-15T18:51:16.623Z,9.40
2018-09-15T18:53:46.770Z,11.23
2018-09-15T18:56:15.768Z,10.73
2018-09-15T18:58:44.544Z,10.33
2018-09-15T19:01:13.699Z,10.67
2018-09-15T19:03:42.827Z,9.80
2018-09-15T19:06:12.177Z,11.80
2018-09-15T19:08:41.008Z,10.17
2018-09-15T19:11:11.101Z,11.40
2018-09-15T19:13:39.987Z,10.43
2018-09-15T19:16:10.381Z,9.70
2018-09-15T19:18:39.690Z,8.93
2018-09-15T19:21:10.153Z,8.77
2018-09-15T19:23:39.075Z,8.50
2018-09-15T19:26:07.925Z,8.50
2018-09-15T19:28:36.771Z,9.23
2018-09-15T19:31:05.627Z,8.47
2018-09-15T19:33:34.442Z,9.00
2018-09-15T19:36:03.672Z,8.63
2018-09-15T19:38:32.750Z,8.83
2018-09-15T19:41:03.286Z,8.80
2018-09-15T19:43:32.120Z,8.63
2018-09-15T19:46:01.122Z,8.83
2018-09-15T19:48:31.379Z,8.40
2018-09-15T19:51:00.611Z,9.40
2018-09-15T19:53:29.644Z,9.63
2018-09-15T19:55:59.784Z,9.93
2018-09-15T19:58:28.821Z,8.30
2018-09-15T20:00:59.290Z,8.10
2018-09-15T20:03:28.114Z,8.43
2018-09-15T20:05:57.167Z,9.97
2018-09-15T20:08:26.082Z,9.23
2018-09-15T20:10:54.911Z,9.70
2018-09-15T20:13:23.744Z,9.90
2018-09-15T20:15:51.376Z,9.27
2018-09-15T20:18:18.941Z,9.00
2018-09-15T20:20:47.856Z,9.30
2018-09-15T20:23:16.925Z,11.27
2018-09-15T20:25:45.989Z,9.83
2018-09-15T20:28:14.871Z,9.47
2018-09-15T20:30:43.702Z,8.67
2018-09-15T20:33:12.905Z,9.03
2018-09-15T20:35:42.052Z,9.60
2018-09-15T20:38:11.085Z,9.80
2018-09-15T20:40:40.090Z,9.43
2018-09-15T20:43:09.082Z,9.60
2018-09-15T20:45:38.046Z,9.70
2018-09-15T20:48:07.629Z,9.33
2018-09-15T20:50:36.570Z,9.43
2018-09-15T20:53:05.510Z,10.10
2018-09-15T20:55:34.349Z,10.30
2018-09-15T20:58:03.208Z,9.80
2018-09-15T21:00:32.042Z,9.30
2018-09-15T21:03:00.884Z,9.87
2018-09-15T21:05:29.747Z,9.93
2018-09-15T21:07:58.618Z,13.00
2018-09-15T21:10:27.458Z,14.97
2018-09-15T21:12:56.298Z,14.87
2018-09-15T21:15:25.152Z,14.93
2018-09-15T21:17:53.964Z,14.37
2018-09-15T21:20:24.028Z,14.90
2018-09-15T21:22:52.898Z,14.30
2018-09-15T21:25:21.694Z,14.93
2018-09-15T21:27:50.505Z,14.40
2018-09-15T21:30:19.395Z,14.47
2018-09-15T21:32:48.234Z,15.47
2018-09-15T21:35:17.089Z,15.77
2018-09-15T21:37:46.000Z,15.50
2018-09-15T21:40:14.832Z,14.60
2018-09-15T21:42:43.670Z,17.57
2018-09-15T21:45:13.016Z,17.20
2018-09-15T21:47:41.851Z,18.17
2018-09-15T21:50:10.769Z,12.97
2018-09-15T21:52:39.677Z,11.77
2018-09-15T21:55:08.793Z,11.97
2018-09-15T21:57:37.671Z,11.63
2018-09-15T22:00:08.785Z,11.00
2018-09-15T22:02:37.698Z,10.87
2018-09-15T22:05:06.595Z,11.27
2018-09-15T22:07:35.857Z,10.73
2018-09-15T22:10:05.211Z,11.00
2018-09-15T22:12:34.417Z,11.73
2018-09-15T22:15:03.589Z,11.17
2018-09-15T22:17:32.796Z,11.37
2018-09-15T22:20:01.896Z,11.10
2018-09-15T22:22:31.224Z,10.40
2018-09-15T22:25:00.394Z,11.10
2018-09-15T22:27:29.630Z,11.70
2018-09-15T22:29:58.818Z,11.83
2018-09-15T22:32:27.972Z,11.43
2018-09-15T22:34:57.113Z,11.73
2018-09-15T22:37:26.282Z,12.23
2018-09-15T22:39:55.691Z,12.23
2018-09-15T22:42:26.316Z,12.97
2018-09-15T22:44:55.405Z,11.87
2018-09-15T22:47:24.503Z,11.40
2018-09-15T22:49:53.775Z,12.57
2018-09-15T22:52:23.041Z,12.07
2018-09-15T22:54:53.767Z,12.63
2018-09-15T22:57:23.199Z,12.60
2018-09-15T22:59:52.371Z,12.37
2018-09-15T23:02:21.573Z,13.10
2018-09-15T23:04:50.720Z,13.87
2018-09-15T23:07:20.003Z,17.33
2018-09-15T23:09:49.436Z,18.33
2018-09-15T23:12:18.720Z,18.53
2018-09-15T23:14:47.902Z,15.83
2018-09-15T23:17:18.218Z,14.33
2018-09-15T23:19:47.922Z,12.27
2018-09-15T23:22:17.325Z,12.10
2018-09-15T23:24:46.420Z,12.03
2018-09-15T23:27:15.380Z,11.97
2018-09-15T23:29:44.315Z,10.67
2018-09-15T23:32:13.323Z,10.87
2018-09-15T23:34:42.314Z,12.27
2018-09-15T23:37:11.297Z,11.37
2018-09-15T23:39:40.209Z,11.20
2018-09-15T23:42:09.198Z,10.73
2018-09-15T23:44:38.152Z,10.63
2018-09-15T23:47:07.047Z,11.93
2018-09-15T23:49:36.027Z,11.87
2018-09-15T23:52:04.964Z,10.40
2018-09-15T23:54:33.908Z,10.73
2018-09-15T23:57:02.812Z,10.17
2018-09-15T23:59:31.753Z,10.07
